Time;durP1;ratioP1;P1;durP2;ratioP2;P2;SDS_P1;SDS_P2;PMS_P1;PMS_P2;Temp;Humidity;BMP_temperature;BMP_pressure;BME280_temperature;BME280_humidity;BME280_pressure;Samples;Min_cycle;Max_cycle;Signal;HPM_P1;HPM_P2
2023/01/19 00:01:25;;;;;;;12.20;9.40;;;0.10;99.90;;;;;;5044731;28;20281;-66
2023/01/19 00:03:51;;;;;;;16.42;10.02;;;0.30;99.90;;;;;;5043757;28;20194;-66
2023/01/19 00:06:17;;;;;;;11.10;8.13;;;0.10;99.90;;;;;;5047387;28;20210;-66
2023/01/19 00:08:44;;;;;;;11.50;8.65;;;0.30;99.90;;;;;;5047018;28;20455;-67
2023/01/19 00:11:11;;;;;;;11.52;9.20;;;0.30;99.90;;;;;;5044476;28;20244;-67
2023/01/19 00:13:37;;;;;;;12.73;8.80;;;0.10;99.90;;;;;;5047772;28;20634;-66
2023/01/19 00:16:03;;;;;;;10.23;8.13;;;0.10;99.90;;;;;;5039794;28;20706;-66
2023/01/19 00:18:29;;;;;;;10.50;8.03;;;-0.10;99.90;;;;;;5041313;28;20289;-67
2023/01/19 00:20:54;;;;;;;9.90;8.90;;;0.00;99.90;;;;;;5045609;28;21028;-66
2023/01/19 00:23:20;;;;;;;12.37;9.40;;;0.00;99.90;;;;;;5047145;28;20269;-66
2023/01/19 00:25:47;;;;;;;11.43;10.00;;;0.10;99.90;;;;;;5047612;28;20237;-66
2023/01/19 00:28:15;;;;;;;11.38;9.35;;;0.00;99.90;;;;;;5050076;28;20193;-66
2023/01/19 00:30:41;;;;;;;12.27;9.40;;;0.60;99.90;;;;;;5043972;28;20181;-67
2023/01/19 00:33:07;;;;;;;11.80;9.30;;;-0.10;99.90;;;;;;5047913;28;20185;-66
2023/01/19 00:35:34;;;;;;;14.75;10.43;;;-0.60;99.90;;;;;;5046399;28;20838;-66
2023/01/19 00:37:59;;;;;;;13.02;9.02;;;0.00;99.90;;;;;;5048903;28;20183;-68
2023/01/19 00:40:25;;;;;;;12.47;9.50;;;-0.60;99.90;;;;;;5047292;28;20632;-67
2023/01/19 00:42:51;;;;;;;12.80;10.07;;;-0.50;99.90;;;;;;5048951;28;20441;-66
2023/01/19 00:45:19;;;;;;;12.90;9.70;;;-0.60;99.90;;;;;;5045111;28;20468;-67
2023/01/19 00:47:46;;;;;;;12.80;8.80;;;-0.10;99.90;;;;;;5042021;28;20319;-67
2023/01/19 00:50:15;;;;;;;14.73;9.95;;;-0.20;99.90;;;;;;5044814;28;20208;-68
2023/01/19 00:52:42;;;;;;;10.45;9.18;;;-0.70;99.90;;;;;;5044587;28;20308;-67
2023/01/19 00:55:10;;;;;;;11.73;8.93;;;-0.30;99.90;;;;;;5040130;28;20213;-68
2023/01/19 00:57:37;;;;;;;11.85;8.85;;;-0.20;99.90;;;;;;5043501;28;20675;-67
2023/01/19 01:00:11;;;;;;;13.38;9.60;;;-0.60;99.90;;;;;;5039192;28;20613;-67
2023/01/19 01:02:38;;;;;;;12.05;9.30;;;-0.30;99.90;;;;;;5043984;28;20652;-66
2023/01/19 01:05:04;;;;;;;11.30;9.63;;;-0.70;99.90;;;;;;5046128;28;20225;-67
2023/01/19 01:07:33;;;;;;;11.15;9.43;;;-0.20;99.90;;;;;;5044790;28;20185;-67
2023/01/19 01:09:59;;;;;;;12.05;8.43;;;0.00;99.90;;;;;;5042641;28;20182;-67
2023/01/19 01:12:27;;;;;;;10.25;8.27;;;0.00;99.90;;;;;;5043516;28;20276;-67
2023/01/19 01:14:53;;;;;;;11.50;9.10;;;0.00;99.90;;;;;;5038430;28;20204;-68
2023/01/19 01:17:23;;;;;;;12.70;9.43;;;-0.90;99.90;;;;;;5041273;28;20185;-67
2023/01/19 01:19:50;;;;;;;11.27;8.40;;;-0.10;99.90;;;;;;5040174;28;20260;-67
2023/01/19 01:22:15;;;;;;;11.57;9.20;;;-0.10;99.90;;;;;;5045593;28;20190;-67
2023/01/19 01:24:41;;;;;;;9.17;7.77;;;-0.10;99.90;;;;;;5040441;28;20712;-67
2023/01/19 01:27:06;;;;;;;11.90;9.10;;;-0.40;99.90;;;;;;5045457;28;20197;-68
2023/01/19 01:29:34;;;;;;;11.03;8.37;;;-0.40;99.90;;;;;;5044432;28;20190;-67
2023/01/19 01:32:00;;;;;;;13.07;9.48;;;-0.50;99.90;;;;;;5047875;28;20201;-66
2023/01/19 01:34:25;;;;;;;12.77;9.50;;;-0.40;99.90;;;;;;5045063;28;20190;-66
2023/01/19 01:36:51;;;;;;;11.17;9.57;;;-0.40;99.90;;;;;;5044388;28;20566;-67
2023/01/19 01:39:17;;;;;;;14.13;9.20;;;-0.40;99.90;;;;;;5042718;28;20186;-67
2023/01/19 01:41:42;;;;;;;11.10;9.13;;;-0.40;99.90;;;;;;5040993;28;20265;-66
2023/01/19 01:44:50;;;;;;;10.87;8.73;;;-0.30;99.90;;;;;;5041895;28;20192;-67
2023/01/19 01:47:41;;;;;;;11.90;8.40;;;-0.50;99.90;;;;;;5040859;28;20662;-67
2023/01/19 01:50:31;;;;;;;11.20;8.75;;;-1.20;99.90;;;;;;5038921;28;20233;-67
2023/01/19 01:53:13;;;;;;;12.48;9.32;;;-0.40;99.90;;;;;;5047086;28;20243;-67
2023/01/19 01:55:46;;;;;;;11.70;8.45;;;-0.70;99.90;;;;;;5041813;28;20663;-67
2023/01/19 01:58:15;;;;;;;10.32;8.88;;;-0.40;99.90;;;;;;5045226;28;20197;-67
2023/01/19 02:03:26;;;;;;;11.85;9.95;;;-0.60;99.90;;;;;;5046183;28;20257;-66
2023/01/19 02:05:56;;;;;;;12.13;9.20;;;-0.60;99.90;;;;;;5044877;28;20589;-67
2023/01/19 02:14:12;;;;;;;11.88;9.23;;;-0.50;99.90;;;;;;5042196;28;20693;-66
2023/01/19 02:16:38;;;;;;;12.40;9.57;;;-1.30;99.90;;;;;;5042323;28;20210;-66
2023/01/19 02:19:06;;;;;;;10.63;9.40;;;-0.40;99.90;;;;;;5045880;28;20332;-67
2023/01/19 02:21:51;;;;;;;10.48;8.88;;;-0.50;99.90;;;;;;5045645;28;20177;-67
2023/01/19 02:24:17;;;;;;;12.93;9.02;;;0.00;99.90;;;;;;5043821;28;20277;-66
2023/01/19 02:26:46;;;;;;;12.43;8.50;;;-0.30;99.90;;;;;;5046518;28;20208;-66
2023/01/19 02:29:18;;;;;;;11.77;8.55;;;-0.40;99.90;;;;;;5042689;28;20312;-66
2023/01/19 02:31:44;;;;;;;10.55;8.20;;;-1.00;99.90;;;;;;5043693;28;20206;-67
2023/01/19 02:34:14;;;;;;;12.90;9.25;;;-1.00;99.90;;;;;;5044885;28;20197;-67
2023/01/19 02:37:05;;;;;;;12.73;9.23;;;-0.60;99.90;;;;;;5046387;28;20202;-67
2023/01/19 02:39:51;;;;;;;11.25;8.32;;;-0.60;99.90;;;;;;5043652;28;20555;-66
2023/01/19 02:42:21;;;;;;;9.52;8.30;;;-0.60;99.90;;;;;;5043365;28;20181;-67
2023/01/19 02:44:49;;;;;;;10.73;8.70;;;-0.40;99.90;;;;;;5049405;28;20202;-67
2023/01/19 02:47:15;;;;;;;13.60;8.75;;;0.10;99.90;;;;;;5048951;28;20205;-67
2023/01/19 02:49:41;;;;;;;11.43;8.80;;;-1.00;99.90;;;;;;5046977;28;20293;-67
2023/01/19 02:52:26;;;;;;;9.60;8.05;;;-0.30;99.90;;;;;;5048932;28;20970;-67
2023/01/19 02:55:17;;;;;;;13.35;8.13;;;-0.30;99.90;;;;;;5044930;28;20213;-66
2023/01/19 02:58:02;;;;;;;10.93;7.53;;;-0.80;99.90;;;;;;5048058;28;20188;-66
2023/01/19 03:00:37;;;;;;;10.38;8.25;;;-0.40;99.90;;;;;;5046304;28;20674;-66
2023/01/19 03:03:24;;;;;;;11.35;8.18;;;-0.30;99.90;;;;;;5044608;28;20206;-66
2023/01/19 03:06:05;;;;;;;13.55;8.55;;;-1.10;99.90;;;;;;5049321;28;20201;-66
2023/01/19 03:08:30;;;;;;;11.23;8.52;;;-0.30;99.90;;;;;;5044644;28;20647;-67
2023/01/19 03:11:05;;;;;;;10.77;8.37;;;-0.40;99.90;;;;;;5048681;28;20221;-66
2023/01/19 03:13:47;;;;;;;9.98;7.93;;;-1.10;99.90;;;;;;5047430;28;20255;-66
2023/01/19 03:16:24;;;;;;;8.45;6.97;;;-0.30;99.90;;;;;;5045217;28;20206;-66
2023/01/19 03:18:57;;;;;;;10.82;8.00;;;-0.20;99.90;;;;;;5043209;28;20194;-67
2023/01/19 03:21:25;;;;;;;10.98;8.18;;;-0.50;99.90;;;;;;5046262;28;20206;-67
2023/01/19 03:23:53;;;;;;;11.50;9.07;;;-1.00;99.90;;;;;;5047744;28;20250;-67
2023/01/19 03:26:25;;;;;;;11.80;8.88;;;-0.50;99.90;;;;;;5043619;28;20237;-66
2023/01/19 03:28:53;;;;;;;11.73;8.98;;;-1.10;99.90;;;;;;5044742;28;20224;-67
2023/01/19 03:31:23;;;;;;;12.23;8.45;;;-0.50;99.90;;;;;;5048196;28;20716;-67
2023/01/19 03:33:54;;;;;;;8.48;7.10;;;-0.50;99.90;;;;;;5043767;28;20215;-67
2023/01/19 03:36:28;;;;;;;13.55;7.72;;;-0.40;99.90;;;;;;5046130;28;20202;-67
2023/01/19 03:38:56;;;;;;;10.93;7.60;;;-0.40;99.90;;;;;;5043200;28;20770;-67
2023/01/19 03:41:24;;;;;;;9.77;7.95;;;-1.00;99.90;;;;;;5049939;28;20281;-66
2023/01/19 03:43:52;;;;;;;10.15;8.50;;;-0.30;99.90;;;;;;5046071;28;20182;-66
2023/01/19 03:46:20;;;;;;;11.93;8.40;;;-0.50;99.90;;;;;;5043688;28;20776;-66
2023/01/19 03:48:46;;;;;;;11.15;7.93;;;-0.60;99.90;;;;;;5045791;28;20772;-66
2023/01/19 03:51:13;;;;;;;8.20;7.28;;;-0.60;99.90;;;;;;5047853;28;20209;-65
2023/01/19 03:53:40;;;;;;;12.02;8.27;;;-0.40;99.90;;;;;;5046226;28;20536;-65
2023/01/19 03:56:08;;;;;;;9.52;8.30;;;-0.50;99.90;;;;;;5049336;28;20215;-68
2023/01/19 03:58:34;;;;;;;8.43;6.60;;;-0.70;99.90;;;;;;5050208;28;20269;-65
2023/01/19 04:01:00;;;;;;;9.97;7.47;;;-1.20;99.90;;;;;;5049097;28;20268;-65
2023/01/19 04:03:26;;;;;;;12.27;8.40;;;-0.50;99.90;;;;;;5049556;28;21052;-67
2023/01/19 04:05:51;;;;;;;9.33;7.63;;;-0.70;99.90;;;;;;5044162;28;20206;-67
2023/01/19 04:08:17;;;;;;;12.83;8.13;;;-0.70;99.90;;;;;;5049874;28;20265;-67
2023/01/19 04:10:42;;;;;;;9.13;7.20;;;-0.50;99.90;;;;;;5047007;28;20581;-67
2023/01/19 04:13:08;;;;;;;9.90;7.87;;;-0.80;99.90;;;;;;5049292;28;20274;-67
2023/01/19 04:15:33;;;;;;;10.17;7.70;;;-1.30;99.90;;;;;;5046131;28;20293;-67
2023/01/19 04:17:59;;;;;;;11.07;8.63;;;-0.50;99.90;;;;;;5047474;28;20181;-67
2023/01/19 04:20:27;;;;;;;12.60;9.07;;;-0.70;99.90;;;;;;5042603;28;20178;-67
2023/01/19 04:22:53;;;;;;;11.35;7.72;;;-0.70;99.90;;;;;;5049646;28;20593;-67
2023/01/19 04:25:19;;;;;;;9.50;7.45;;;-0.70;99.90;;;;;;5044684;28;20771;-67
2023/01/19 04:27:45;;;;;;;8.67;6.90;;;-0.90;99.90;;;;;;5047870;28;20289;-67
2023/01/19 04:30:11;;;;;;;10.20;8.47;;;-0.70;99.90;;;;;;5049743;28;20440;-67
2023/01/19 04:32:36;;;;;;;8.57;7.43;;;-0.80;99.90;;;;;;5050670;28;20265;-67
2023/01/19 04:35:03;;;;;;;12.47;8.40;;;-0.70;99.90;;;;;;5038548;28;20222;-67
2023/01/19 04:37:28;;;;;;;8.95;7.80;;;-0.70;99.90;;;;;;5042978;28;20188;-67
2023/01/19 04:39:54;;;;;;;9.07;7.90;;;-0.70;99.90;;;;;;5044992;28;20182;-67
2023/01/19 04:42:20;;;;;;;10.37;8.17;;;-0.70;99.90;;;;;;5044741;28;20669;-67
2023/01/19 04:44:46;;;;;;;8.52;6.95;;;-1.50;99.90;;;;;;5044945;28;20213;-67
2023/01/19 04:47:11;;;;;;;11.10;8.53;;;-0.80;99.90;;;;;;5046640;28;20197;-67
2023/01/19 04:49:37;;;;;;;11.77;9.00;;;-1.00;99.90;;;;;;5046230;28;20184;-67
2023/01/19 04:52:06;;;;;;;10.93;7.23;;;-0.80;99.90;;;;;;5049290;28;20519;-67
2023/01/19 04:54:31;;;;;;;9.52;7.50;;;-0.70;99.90;;;;;;5046884;28;20180;-67
2023/01/19 04:56:57;;;;;;;12.37;8.27;;;-0.70;99.90;;;;;;5048237;28;20180;-66
2023/01/19 04:59:23;;;;;;;10.03;8.23;;;-0.60;99.90;;;;;;5040963;28;20217;-67
2023/01/19 05:01:48;;;;;;;12.27;9.20;;;-0.80;99.90;;;;;;5041353;28;20672;-66
2023/01/19 05:04:14;;;;;;;11.00;9.20;;;-0.80;99.90;;;;;;5047355;28;20190;-67
2023/01/19 05:06:40;;;;;;;14.77;8.80;;;-0.90;99.90;;;;;;5044670;28;20219;-66
2023/01/19 05:09:07;;;;;;;12.47;9.23;;;-0.90;99.90;;;;;;5041872;28;20498;-66
2023/01/19 05:11:34;;;;;;;12.25;9.10;;;-0.30;99.90;;;;;;5045371;28;20260;-66
2023/01/19 05:13:59;;;;;;;10.50;7.75;;;-1.20;99.90;;;;;;5045076;28;20186;-67
2023/01/19 05:16:25;;;;;;;12.30;8.70;;;-0.60;99.90;;;;;;5043946;28;21358;-67
2023/01/19 05:18:51;;;;;;;11.47;8.97;;;-0.60;99.90;;;;;;5043810;28;20175;-67
2023/01/19 05:21:17;;;;;;;12.30;9.73;;;-0.70;99.90;;;;;;5050396;28;20185;-67
2023/01/19 05:23:42;;;;;;;9.60;8.60;;;-0.70;99.90;;;;;;5040656;28;20534;-65
2023/01/19 05:26:08;;;;;;;10.80;9.00;;;-0.40;99.90;;;;;;5041907;28;20225;-63
2023/01/19 05:28:33;;;;;;;11.90;9.37;;;-0.70;99.90;;;;;;5040475;28;20194;-63
2023/01/19 05:30:59;;;;;;;11.53;8.40;;;-0.40;99.90;;;;;;5044127;28;20678;-62
2023/01/19 05:33:25;;;;;;;13.37;9.63;;;-0.50;99.90;;;;;;5042811;28;20655;-63
2023/01/19 05:35:51;;;;;;;12.50;8.63;;;-0.60;99.90;;;;;;5040666;28;20484;-63
2023/01/19 05:38:18;;;;;;;11.95;8.80;;;-0.50;99.90;;;;;;5049200;28;20201;-64
2023/01/19 05:40:44;;;;;;;11.00;9.10;;;-0.60;99.90;;;;;;5040329;28;20192;-63
2023/01/19 05:43:10;;;;;;;11.13;8.53;;;-0.50;99.90;;;;;;5044327;28;20185;-63
2023/01/19 05:45:37;;;;;;;11.32;9.00;;;-0.60;99.90;;;;;;5041422;28;20205;-63
2023/01/19 05:48:03;;;;;;;11.73;8.85;;;-1.00;99.90;;;;;;5046652;28;20193;-64
2023/01/19 05:50:29;;;;;;;10.68;8.43;;;-0.50;99.90;;;;;;5043993;28;20185;-63
2023/01/19 05:52:55;;;;;;;11.20;9.40;;;-0.60;99.90;;;;;;5040061;28;20222;-63
2023/01/19 05:55:21;;;;;;;12.05;9.70;;;-1.10;99.90;;;;;;5037062;28;20225;-62
2023/01/19 05:57:47;;;;;;;13.20;9.07;;;-0.70;99.90;;;;;;5041302;28;20182;-63
2023/01/19 06:00:13;;;;;;;17.73;9.27;;;-0.50;99.90;;;;;;5042621;28;20223;-62
2023/01/19 06:02:39;;;;;;;13.52;9.35;;;-0.60;99.90;;;;;;5045523;28;20228;-62
2023/01/19 06:05:05;;;;;;;12.77;9.00;;;-1.00;99.90;;;;;;5045722;28;20658;-63
2023/01/19 06:07:30;;;;;;;14.48;9.70;;;-0.70;99.90;;;;;;5043306;28;20627;-62
2023/01/19 06:09:56;;;;;;;12.33;9.17;;;-0.50;99.90;;;;;;5037813;28;20202;-62
2023/01/19 06:12:22;;;;;;;11.77;7.70;;;-0.60;99.90;;;;;;5042521;28;20234;-62
2023/01/19 06:14:48;;;;;;;12.90;9.10;;;-0.20;99.90;;;;;;5038267;28;20231;-62
2023/01/19 06:17:13;;;;;;;10.90;8.00;;;-0.50;99.90;;;;;;5045090;28;20464;-63
2023/01/19 06:19:39;;;;;;;12.77;8.83;;;-1.20;99.90;;;;;;5043781;28;20193;-63
2023/01/19 06:22:05;;;;;;;12.13;9.03;;;-0.70;99.90;;;;;;5045731;28;20205;-63
2023/01/19 06:24:31;;;;;;;12.67;8.93;;;-0.40;99.90;;;;;;5042609;28;20449;-63
2023/01/19 06:26:59;;;;;;;13.07;9.07;;;-0.80;99.90;;;;;;5043691;28;20189;-63
2023/01/19 06:29:25;;;;;;;9.50;8.15;;;-0.60;99.90;;;;;;5045336;28;20190;-64
2023/01/19 06:31:50;;;;;;;9.85;8.05;;;-0.50;99.90;;;;;;5043179;28;20252;-63
2023/01/19 06:34:16;;;;;;;10.10;7.60;;;-0.60;99.90;;;;;;5045534;28;20205;-62
2023/01/19 06:36:42;;;;;;;10.52;8.57;;;-0.50;99.90;;;;;;5044959;28;20230;-64
2023/01/19 06:39:09;;;;;;;13.90;9.13;;;-0.70;99.90;;;;;;5045237;28;20292;-64
2023/01/19 06:41:35;;;;;;;10.50;8.95;;;-0.60;99.90;;;;;;5042415;28;20190;-62
2023/01/19 06:44:01;;;;;;;10.85;8.85;;;-0.80;99.90;;;;;;5033145;28;20199;-65
2023/01/19 06:46:27;;;;;;;9.77;8.80;;;-0.40;99.90;;;;;;5042022;28;20221;-63
2023/01/19 06:48:54;;;;;;;12.73;9.57;;;-0.50;99.90;;;;;;5047095;28;20280;-64
2023/01/19 06:51:20;;;;;;;25.35;15.80;;;-0.60;99.90;;;;;;5040462;28;20827;-62
2023/01/19 06:53:46;;;;;;;13.98;8.73;;;-1.10;99.90;;;;;;5041034;28;20181;-62
2023/01/19 06:56:11;;;;;;;10.70;8.50;;;-0.60;99.90;;;;;;5039505;28;20212;-65
2023/01/19 06:58:37;;;;;;;11.93;8.57;;;-1.20;99.90;;;;;;5048541;28;20216;-62
2023/01/19 07:01:04;;;;;;;11.50;7.87;;;-0.50;99.90;;;;;;5046443;28;20284;-62
2023/01/19 07:03:31;;;;;;;13.63;8.25;;;-0.40;99.90;;;;;;5043202;28;20454;-62
2023/01/19 07:05:59;;;;;;;12.20;9.38;;;-0.40;99.90;;;;;;5048800;28;20300;-62
2023/01/19 07:08:25;;;;;;;9.50;8.25;;;-0.40;99.90;;;;;;5039657;28;20197;-62
2023/01/19 07:10:51;;;;;;;10.13;7.80;;;-0.60;99.90;;;;;;5045467;28;20284;-64
2023/01/19 07:13:16;;;;;;;9.90;8.20;;;-0.50;99.90;;;;;;5044024;28;20186;-66
2023/01/19 07:15:42;;;;;;;12.90;8.50;;;-0.40;99.90;;;;;;5045212;28;20471;-65
2023/01/19 07:18:08;;;;;;;12.17;7.97;;;-1.10;99.90;;;;;;5042156;28;20269;-66
2023/01/19 07:20:35;;;;;;;9.60;8.48;;;-0.70;99.90;;;;;;5045598;28;20598;-64
2023/01/19 07:23:01;;;;;;;14.15;9.15;;;-0.60;99.90;;;;;;5044850;28;20212;-62
2023/01/19 07:25:27;;;;;;;9.00;7.90;;;-0.70;99.90;;;;;;5040973;28;20644;-61
2023/01/19 07:27:57;;;;;;;13.07;8.32;;;-0.30;99.90;;;;;;5046970;28;20442;-61
2023/01/19 07:30:23;;;;;;;11.63;7.68;;;0.10;99.90;;;;;;5038450;28;20186;-66
2023/01/19 07:32:48;;;;;;;11.13;7.70;;;-0.80;99.90;;;;;;5049797;28;20231;-67
2023/01/19 07:35:14;;;;;;;10.90;8.73;;;-0.30;99.90;;;;;;5044524;28;20201;-69
2023/01/19 07:37:40;;;;;;;14.18;9.82;;;-0.30;99.90;;;;;;5050800;28;20243;-68
2023/01/19 07:40:06;;;;;;;9.63;8.57;;;-0.30;99.90;;;;;;5046874;28;20189;-68
2023/01/19 07:42:31;;;;;;;12.40;8.00;;;-0.10;99.90;;;;;;5045083;28;20188;-69
2023/01/19 07:44:57;;;;;;;10.90;7.20;;;-0.20;99.90;;;;;;5043594;28;20202;-67
2023/01/19 07:47:22;;;;;;;11.10;7.60;;;0.00;99.90;;;;;;5044319;28;20205;-66
2023/01/19 07:49:48;;;;;;;9.03;5.50;;;-0.20;99.90;;;;;;5048589;28;20182;-62
2023/01/19 07:52:14;;;;;;;8.03;5.03;;;-0.20;99.90;;;;;;5042274;28;20216;-71
2023/01/19 07:54:40;;;;;;;6.40;5.60;;;0.10;99.90;;;;;;5048427;28;20185;-63
2023/01/19 07:57:06;;;;;;;9.80;5.32;;;-0.60;99.90;;;;;;5044777;28;20181;-67
2023/01/19 07:59:31;;;;;;;7.37;5.83;;;-0.10;99.90;;;;;;5044543;28;20274;-69
2023/01/19 08:01:58;;;;;;;12.53;7.97;;;-0.40;99.90;;;;;;5043570;28;20186;-69
2023/01/19 08:04:27;;;;;;;6.85;5.30;;;0.30;99.90;;;;;;5045703;28;20487;-68
2023/01/19 08:06:54;;;;;;;8.85;5.60;;;0.20;99.90;;;;;;5045355;28;20194;-66
2023/01/19 08:09:19;;;;;;;6.85;5.65;;;0.70;99.90;;;;;;5040362;28;20213;-66
2023/01/19 08:11:45;;;;;;;9.47;6.13;;;0.30;99.90;;;;;;5044804;28;20271;-65
2023/01/19 08:14:10;;;;;;;9.67;6.77;;;0.30;99.90;;;;;;5037262;28;20244;-64
2023/01/19 08:16:36;;;;;;;9.30;6.60;;;0.20;99.90;;;;;;5039926;28;20295;-64
2023/01/19 08:19:03;;;;;;;8.77;6.90;;;0.80;99.90;;;;;;5046792;28;20186;-65
2023/01/19 08:21:29;;;;;;;7.43;6.53;;;0.30;99.90;;;;;;5054309;28;20287;-63
2023/01/19 08:23:56;;;;;;;7.95;6.95;;;0.30;99.90;;;;;;5048641;28;20192;-64
2023/01/19 08:26:30;;;;;;;6.80;5.82;;;0.20;99.90;;;;;;5051600;28;20284;-64
2023/01/19 08:28:59;;;;;;;5.90;5.00;;;-0.30;99.90;;;;;;5050329;28;20231;-64
2023/01/19 08:31:25;;;;;;;6.53;5.38;;;0.40;99.90;;;;;;5049747;28;20236;-63
2023/01/19 08:33:51;;;;;;;6.20;5.68;;;1.00;99.90;;;;;;5051427;28;20654;-63
2023/01/19 08:36:17;;;;;;;6.50;5.68;;;0.20;99.90;;;;;;5052362;28;20213;-64
2023/01/19 08:38:46;;;;;;;6.93;5.10;;;0.70;99.90;;;;;;5048768;28;20190;-64
2023/01/19 08:41:13;;;;;;;6.13;4.80;;;0.70;99.90;;;;;;5041692;28;20736;-64
2023/01/19 08:43:38;;;;;;;7.75;5.22;;;0.80;99.90;;;;;;5046525;28;20219;-63
2023/01/19 08:46:05;;;;;;;15.77;10.20;;;0.50;99.90;;;;;;5044051;28;20216;-63
2023/01/19 08:48:30;;;;;;;7.28;5.38;;;0.60;99.90;;;;;;5048345;28;20654;-64
2023/01/19 08:50:57;;;;;;;6.17;5.20;;;0.50;99.90;;;;;;5046949;28;20217;-64
2023/01/19 08:53:23;;;;;;;6.35;5.15;;;0.70;99.90;;;;;;5049538;28;20892;-64
2023/01/19 08:55:53;;;;;;;5.60;4.70;;;0.70;99.90;;;;;;5045914;28;20237;-64
2023/01/19 08:58:19;;;;;;;6.32;5.22;;;0.30;99.90;;;;;;5047288;28;20185;-64
2023/01/19 09:00:45;;;;;;;7.85;5.75;;;0.60;99.90;;;;;;5043736;28;20539;-64
2023/01/19 09:03:12;;;;;;;8.30;6.40;;;0.20;99.90;;;;;;5047142;28;20239;-65
2023/01/19 09:05:38;;;;;;;9.77;5.38;;;0.50;99.90;;;;;;5045983;28;20600;-63
2023/01/19 09:08:07;;;;;;;6.85;5.32;;;0.70;99.90;;;;;;5047400;28;20190;-64
2023/01/19 09:10:36;;;;;;;6.95;5.60;;;1.00;99.90;;;;;;5036728;28;20182;-64
2023/01/19 09:13:09;;;;;;;5.63;4.95;;;1.00;99.90;;;;;;5048072;28;20546;-64
2023/01/19 09:15:36;;;;;;;7.15;5.72;;;1.20;99.90;;;;;;5041794;28;20235;-64
2023/01/19 09:18:03;;;;;;;5.55;4.80;;;1.90;99.90;;;;;;5047128;28;20185;-63
2023/01/19 09:20:30;;;;;;;5.53;4.60;;;2.20;99.90;;;;;;5053337;28;20607;-63
2023/01/19 09:22:57;;;;;;;6.28;5.22;;;2.40;99.90;;;;;;5048920;28;20182;-63
2023/01/19 09:25:23;;;;;;;5.57;4.93;;;3.10;99.90;;;;;;5043207;28;20237;-63
2023/01/19 09:27:48;;;;;;;6.55;5.72;;;2.90;99.90;;;;;;5048935;28;20185;-65
2023/01/19 09:30:15;;;;;;;5.83;4.70;;;2.80;99.90;;;;;;5045390;28;20183;-63
2023/01/19 09:32:41;;;;;;;6.22;5.40;;;3.10;99.90;;;;;;5047792;28;20244;-64
2023/01/19 09:35:07;;;;;;;5.50;4.73;;;2.80;99.90;;;;;;5047771;28;20239;-63
2023/01/19 09:37:33;;;;;;;5.43;4.93;;;3.10;99.90;;;;;;5049016;28;20443;-64
2023/01/19 09:39:58;;;;;;;5.33;4.50;;;2.90;99.90;;;;;;5046096;28;21059;-63
2023/01/19 09:42:48;;;;;;;11.60;4.10;;;2.90;99.60;;;;;;5047171;28;20190;-63
2023/01/19 09:45:37;;;;;;;7.35;4.65;;;2.60;99.50;;;;;;5045270;28;20223;-64
2023/01/19 09:48:36;;;;;;;6.03;4.80;;;3.00;99.70;;;;;;5039702;28;20230;-64
2023/01/19 09:51:06;;;;;;;7.70;4.70;;;3.10;99.50;;;;;;5045380;28;20221;-63
2023/01/19 09:53:57;;;;;;;6.50;4.88;;;3.10;99.50;;;;;;5044818;28;20177;-64
2023/01/19 09:56:23;;;;;;;4.80;3.95;;;3.50;99.40;;;;;;5046831;28;20262;-65
2023/01/19 09:58:50;;;;;;;8.65;4.82;;;3.00;98.90;;;;;;5048473;28;20183;-73
2023/01/19 10:01:30;;;;;;;5.57;4.65;;;4.10;98.30;;;;;;5045750;28;21008;-65
2023/01/19 10:04:35;;;;;;;6.00;4.63;;;4.50;97.20;;;;;;5050904;28;20192;-65
2023/01/19 10:07:19;;;;;;;6.32;4.70;;;5.20;96.60;;;;;;5044593;28;20539;-63
2023/01/19 10:10:01;;;;;;;6.05;4.40;;;4.60;94.90;;;;;;5042593;28;20332;-65
2023/01/19 10:12:49;;;;;;;6.00;5.40;;;4.40;94.70;;;;;;5048713;28;20274;-64
2023/01/19 10:15:30;;;;;;;6.82;5.18;;;4.70;95.40;;;;;;5044004;28;20726;-64
2023/01/19 10:18:02;;;;;;;7.05;5.00;;;4.50;95.90;;;;;;5048629;28;20580;-64
2023/01/19 10:20:42;;;;;;;5.53;3.95;;;4.00;95.80;;;;;;5050607;28;20186;-64
2023/01/19 10:23:21;;;;;;;5.10;4.55;;;4.40;96.20;;;;;;5047148;28;20216;-63
2023/01/19 10:25:46;;;;;;;5.35;3.95;;;4.30;96.60;;;;;;5044741;28;20203;-63
2023/01/19 10:28:14;;;;;;;6.50;5.80;;;4.30;96.20;;;;;;5045538;28;20221;-63
2023/01/19 10:30:42;;;;;;;6.32;5.22;;;4.60;96.80;;;;;;5043383;28;20616;-65
2023/01/19 10:33:12;;;;;;;5.63;5.07;;;4.10;96.80;;;;;;5045994;28;20551;-65
2023/01/19 10:35:37;;;;;;;9.23;6.03;;;4.50;96.80;;;;;;5042952;28;20280;-64
2023/01/19 10:38:03;;;;;;;4.83;4.43;;;4.30;96.90;;;;;;5044841;28;21108;-65
2023/01/19 10:40:38;;;;;;;6.13;4.82;;;4.50;96.40;;;;;;5048005;28;20187;-64
2023/01/19 10:43:42;;;;;;;5.82;5.00;;;4.40;96.30;;;;;;5039703;28;20282;-64
2023/01/19 10:46:20;;;;;;;5.72;4.90;;;4.50;96.70;;;;;;5044892;28;20272;-65
2023/01/19 10:48:49;;;;;;;7.32;4.78;;;4.10;96.70;;;;;;5044464;28;20210;-64
2023/01/19 10:51:15;;;;;;;6.53;4.40;;;4.10;97.10;;;;;;5048889;28;20632;-63
2023/01/19 10:53:51;;;;;;;6.47;5.40;;;4.10;97.30;;;;;;5047656;28;20265;-64
2023/01/19 10:56:23;;;;;;;6.13;4.65;;;3.90;97.20;;;;;;5044282;28;20452;-64
2023/01/19 10:58:49;;;;;;;6.28;4.82;;;4.00;96.90;;;;;;5048964;28;20671;-64
2023/01/19 11:01:26;;;;;;;6.27;4.60;;;3.50;96.40;;;;;;5046585;28;20240;-64
2023/01/19 11:03:52;;;;;;;6.88;4.72;;;3.40;97.60;;;;;;5052291;28;20447;-64
2023/01/19 11:06:25;;;;;;;5.43;4.93;;;3.70;97.70;;;;;;5051876;28;20581;-64
2023/01/19 11:08:52;;;;;;;7.55;5.32;;;3.70;97.70;;;;;;5046880;28;20664;-64
2023/01/19 11:11:20;;;;;;;9.75;5.93;;;3.70;97.70;;;;;;5055143;28;20221;-63
2023/01/19 11:14:03;;;;;;;8.77;5.10;;;3.30;97.40;;;;;;5049081;28;20190;-65
2023/01/19 11:16:30;;;;;;;5.55;4.93;;;4.00;97.50;;;;;;5047334;28;20209;-64
2023/01/19 11:19:00;;;;;;;7.05;4.50;;;3.40;96.80;;;;;;5054203;28;20280;-64
2023/01/19 11:21:29;;;;;;;4.90;4.32;;;4.10;97.20;;;;;;5053604;28;20200;-64
2023/01/19 11:24:07;;;;;;;5.72;4.50;;;4.20;96.90;;;;;;5052580;28;20175;-64
2023/01/19 11:27:01;;;;;;;4.55;4.15;;;4.20;96.80;;;;;;5046469;28;20612;-64
2023/01/19 11:29:28;;;;;;;7.05;4.65;;;4.20;96.80;;;;;;5040982;28;20207;-64
2023/01/19 11:31:56;;;;;;;5.35;4.53;;;4.20;96.60;;;;;;5049280;28;20207;-64
2023/01/19 11:34:38;;;;;;;4.78;4.28;;;4.50;96.60;;;;;;5048358;28;20184;-64
2023/01/19 11:37:19;;;;;;;6.75;4.97;;;3.90;96.10;;;;;;5050400;28;20198;-64
2023/01/19 11:39:51;;;;;;;6.93;5.00;;;4.50;96.60;;;;;;5049632;28;20186;-63
2023/01/19 11:42:18;;;;;;;6.07;4.13;;;4.30;96.50;;;;;;5048984;28;20329;-64
2023/01/19 11:45:05;;;;;;;9.00;5.88;;;4.50;96.20;;;;;;5047642;28;20198;-64
2023/01/19 11:47:45;;;;;;;7.80;6.15;;;4.50;96.20;;;;;;5051327;28;20600;-64
2023/01/19 11:50:33;;;;;;;7.70;5.20;;;4.70;96.20;;;;;;5046020;28;20649;-64
2023/01/19 11:53:24;;;;;;;4.47;3.70;;;4.60;96.30;;;;;;5045818;28;20211;-64
2023/01/19 11:56:12;;;;;;;7.30;4.10;;;4.60;96.30;;;;;;5046274;28;20250;-64
2023/01/19 11:58:40;;;;;;;6.25;5.05;;;4.60;96.50;;;;;;5048171;28;20285;-64
2023/01/19 12:01:23;;;;;;;10.00;6.32;;;4.40;96.40;;;;;;5041326;28;20194;-64
2023/01/19 12:03:56;;;;;;;6.38;4.80;;;4.70;96.40;;;;;;5047552;28;20184;-64
2023/01/19 12:06:34;;;;;;;4.75;4.30;;;4.60;96.10;;;;;;5047270;28;20759;-65
2023/01/19 12:09:08;;;;;;;4.05;3.75;;;4.60;96.90;;;;;;5048958;28;20974;-64
2023/01/19 12:11:37;;;;;;;6.10;3.83;;;4.60;96.50;;;;;;5048899;28;20207;-64
2023/01/19 12:14:05;;;;;;;4.43;4.00;;;4.50;96.40;;;;;;5044331;28;20182;-64
2023/01/19 12:16:36;;;;;;;8.25;5.85;;;4.60;96.70;;;;;;5045224;28;20628;-65
2023/01/19 12:19:10;;;;;;;7.18;5.03;;;4.00;96.70;;;;;;5049393;28;20267;-63
2023/01/19 12:21:36;;;;;;;6.20;4.65;;;3.90;96.60;;;;;;5049431;28;20188;-63
2023/01/19 12:24:23;;;;;;;4.63;3.60;;;4.30;97.10;;;;;;5044068;28;20660;-64
2023/01/19 12:26:57;;;;;;;6.50;5.05;;;4.10;97.00;;;;;;5050561;28;20248;-64
2023/01/19 12:29:30;;;;;;;5.28;4.65;;;4.70;97.90;;;;;;5045199;28;20649;-64
2023/01/19 12:32:17;;;;;;;5.97;4.43;;;3.70;97.60;;;;;;5048842;28;20209;-64
2023/01/19 12:34:50;;;;;;;5.80;4.82;;;4.60;97.10;;;;;;5062432;28;20182;-64
2023/01/19 12:37:34;;;;;;;5.05;4.50;;;4.50;97.50;;;;;;5051009;28;20183;-64
2023/01/19 12:40:04;;;;;;;6.07;5.50;;;4.20;97.10;;;;;;5050154;28;20181;-65
2023/01/19 12:42:30;;;;;;;6.60;5.53;;;4.40;97.30;;;;;;5048439;28;20234;-64
2023/01/19 12:45:10;;;;;;;4.90;4.43;;;3.80;97.10;;;;;;5049450;28;20215;-64
2023/01/19 12:47:36;;;;;;;6.30;4.80;;;4.50;97.70;;;;;;5048602;28;20458;-64
2023/01/19 12:50:15;;;;;;;4.90;4.40;;;4.30;97.00;;;;;;5055150;28;20190;-64
2023/01/19 12:52:50;;;;;;;6.35;4.65;;;4.30;97.20;;;;;;5048607;28;20503;-64
2023/01/19 12:55:26;;;;;;;4.60;4.20;;;3.70;96.70;;;;;;5047149;28;20207;-64
2023/01/19 12:58:13;;;;;;;5.45;4.30;;;4.70;97.60;;;;;;5054094;28;20236;-64
2023/01/19 13:00:43;;;;;;;4.97;3.97;;;4.20;97.70;;;;;;5040238;28;20187;-63
2023/01/19 13:03:17;;;;;;;3.75;3.45;;;4.20;97.90;;;;;;5049273;28;20651;-64
2023/01/19 13:05:43;;;;;;;6.32;4.55;;;4.40;98.90;;;;;;5045913;28;20239;-64
2023/01/19 13:08:08;;;;;;;5.70;4.43;;;4.20;97.90;;;;;;5049635;28;20268;-64